Time;durP1;ratioP1;P1;durP2;ratioP2;P2;SDS_P1;SDS_P2;PMS_P1;PMS_P2;Temp;Humidity;BMP_temperature;BMP_pressure;BME280_temperature;BME280_humidity;BME280_pressure;Samples;Min_cycle;Max_cycle;Signal;HPM_P1;HPM_P2
2022/05/02 00:08:34;;;;;;;6.60;4.20;;;;;;;11.14;63.45;100758.78;31368362;28;20037;-78
2022/05/02 00:23:37;;;;;;;7.43;4.10;;;;;;;11.40;62.02;100753.81;31374549;28;20052;-79
2022/05/02 00:38:39;;;;;;;7.67;4.33;;;;;;;11.47;62.31;100764.59;31348950;28;20051;-78
2022/05/02 00:53:43;;;;;;;7.83;4.03;;;;;;;11.16;63.74;100759.13;31364719;28;20607;-78
2022/05/02 01:08:45;;;;;;;13.00;5.77;;;;;;;11.01;64.36;100760.47;31374426;28;20839;-78
2022/05/02 01:23:53;;;;;;;11.40;5.77;;;;;;;10.71;66.79;100754.97;31375984;28;20068;-78
2022/05/02 01:38:55;;;;;;;11.60;5.53;;;;;;;10.77;67.04;100745.22;31371994;28;20057;-78
2022/05/02 01:53:57;;;;;;;10.97;4.80;;;;;;;10.65;70.31;100757.34;31277170;28;20052;-77
2022/05/02 02:08:59;;;;;;;10.93;5.33;;;;;;;10.59;69.84;100751.59;31252039;28;20501;-78
2022/05/02 02:24:04;;;;;;;8.23;5.00;;;;;;;10.50;69.91;100759.44;31244764;28;20088;-78
2022/05/02 02:39:06;;;;;;;11.30;4.97;;;;;;;10.49;69.71;100768.75;31220929;28;20553;-78
2022/05/02 02:54:08;;;;;;;8.83;5.83;;;;;;;10.77;68.98;100756.84;31360582;28;20086;-78
2022/05/02 03:09:10;;;;;;;9.23;6.07;;;;;;;10.87;66.32;100766.03;31431715;28;20060;-79
2022/05/02 03:24:11;;;;;;;11.13;6.20;;;;;;;10.89;66.73;100774.56;31417384;28;20059;-78
2022/05/02 03:39:14;;;;;;;17.50;7.30;;;;;;;11.13;62.66;100789.06;31369975;28;20413;-78
2022/05/02 03:54:16;;;;;;;16.50;7.53;;;;;;;11.33;61.80;100786.53;31376900;28;20057;-79
2022/05/02 04:09:18;;;;;;;11.83;5.93;;;;;;;11.21;65.73;100807.63;31376896;28;20120;-77
2022/05/02 04:24:20;;;;;;;17.63;6.23;;;;;;;11.47;66.22;100814.31;31386188;28;20061;-78
2022/05/02 04:39:22;;;;;;;34.63;9.87;;;;;;;11.54;63.13;100808.03;31355099;28;20053;-79
2022/05/02 04:54:24;;;;;;;18.37;10.83;;;;;;;11.77;63.51;100810.84;31365384;28;20064;-80
2022/05/02 05:09:26;;;;;;;17.97;8.67;;;;;;;11.92;61.47;100812.19;31383812;28;20057;-79
2022/05/02 05:24:36;;;;;;;19.57;10.37;;;;;;;12.42;58.14;100811.47;31429289;28;20049;-79
2022/05/02 05:40:01;;;;;;;19.63;10.07;;;;;;;13.75;54.91;100816.78;31367331;28;20453;-80
2022/05/02 05:55:06;;;;;;;19.10;10.37;;;;;;;14.64;52.17;100818.25;31380037;28;20048;-79
2022/05/02 06:10:09;;;;;;;14.13;7.63;;;;;;;15.67;46.46;100817.47;31365864;28;20053;-79
2022/05/02 06:25:14;;;;;;;15.00;7.20;;;;;;;15.99;45.35;100817.28;31430182;28;20048;-78
2022/05/02 06:40:21;;;;;;;10.87;5.87;;;;;;;16.41;45.59;100825.34;31353564;28;20060;-79
2022/05/02 06:55:45;;;;;;;12.73;4.50;;;;;;;16.54;44.99;100828.84;31404769;28;20135;-81
2022/05/02 07:10:51;;;;;;;8.23;4.65;;;;;;;18.02;42.09;100822.03;31420795;28;20140;-78
2022/05/02 07:26:13;;;;;;;10.68;5.18;;;;;;;19.21;39.50;100818.72;31375664;28;20044;-75
2022/05/02 07:41:23;;;;;;;11.82;5.22;;;;;;;19.96;37.52;100811.38;31361562;28;20143;-76
2022/05/02 07:56:28;;;;;;;10.68;5.20;;;;;;;20.51;36.42;100805.59;31378231;28;20515;-80
2022/05/02 08:11:57;;;;;;;15.77;7.82;;;;;;;21.15;32.15;100796.78;31351235;28;20048;-80
2022/05/02 08:27:17;;;;;;;7.70;3.88;;;;;;;21.94;28.85;100780.28;31364025;28;20045;-75
2022/05/02 08:42:44;;;;;;;9.25;3.78;;;;;;;21.69;29.33;100767.09;31389613;28;20053;-78
2022/05/02 08:58:27;;;;;;;10.23;4.25;;;;;;;19.87;31.40;100764.56;31387926;28;20095;-81
2022/05/02 09:13:49;;;;;;;11.03;4.30;;;;;;;18.78;34.17;100748.28;31369984;28;20080;-80
2022/05/02 09:28:54;;;;;;;7.80;4.20;;;;;;;18.81;34.83;100736.38;31374820;28;20048;-78
2022/05/02 09:59:30;;;;;;;13.02;5.30;;;;;;;22.50;29.43;100687.00;31391478;28;20052;-77
2022/05/02 10:14:46;;;;;;;22.25;5.82;;;;;;;23.82;29.78;100682.34;31370998;28;20044;-80
2022/05/02 10:30:12;;;;;;;11.60;5.07;;;;;;;21.07;32.59;100679.69;31346478;28;20052;-80
2022/05/02 10:45:16;;;;;;;12.05;4.78;;;;;;;19.60;34.16;100673.81;31365668;28;20370;-79
2022/05/02 11:00:19;;;;;;;14.40;5.88;;;;;;;19.05;35.14;100660.22;31354654;28;20063;-79
2022/05/02 11:15:25;;;;;;;15.40;7.53;;;;;;;18.84;34.28;100658.44;31373845;28;20055;-82
2022/05/02 11:30:28;;;;;;;13.23;7.50;;;;;;;18.70;34.13;100635.84;31392637;28;20064;-78
2022/05/02 11:45:43;;;;;;;11.00;6.30;;;;;;;18.48;34.51;100637.97;31415422;28;20059;-78
2022/05/02 12:01:00;;;;;;;13.37;8.00;;;;;;;18.71;35.68;100623.59;31391808;28;20049;-79
2022/05/02 12:16:10;;;;;;;8.15;5.05;;;;;;;19.68;33.54;100619.88;31361142;28;20052;-77
2022/05/02 12:31:23;;;;;;;11.90;5.03;;;;;;;19.22;33.22;100606.34;31396117;28;20076;-81
2022/05/02 12:46:33;;;;;;;14.52;7.80;;;;;;;18.84;35.37;100615.19;31392403;28;20469;-77
2022/05/02 13:01:44;;;;;;;14.90;7.85;;;;;;;18.73;34.36;100604.66;31380568;28;20059;-77
2022/05/02 13:16:47;;;;;;;12.10;6.93;;;;;;;18.55;34.60;100596.44;31383349;28;20047;-74
2022/05/02 13:32:05;;;;;;;5.57;3.70;;;;;;;18.04;35.83;100610.81;31363629;28;20053;-79
2022/05/02 13:47:12;;;;;;;5.43;3.47;;;;;;;17.33;36.44;100597.22;31359582;28;21516;-81
2022/05/02 14:02:20;;;;;;;5.15;3.47;;;;;;;17.55;37.21;100585.38;31357063;28;20573;-79
2022/05/02 14:17:35;;;;;;;5.18;3.72;;;;;;;17.40;36.48;100574.22;31410156;28;20072;-83
2022/05/02 14:32:41;;;;;;;7.03;3.28;;;;;;;17.16;37.98;100582.22;31378321;28;20136;-80
2022/05/02 14:47:46;;;;;;;5.60;1.90;;;;;;;16.38;48.47;100590.59;31381786;28;20049;-76
2022/05/02 15:02:50;;;;;;;3.60;2.07;;;;;;;15.82;56.14;100583.16;31374481;28;20497;-81
2022/05/02 15:18:25;;;;;;;5.33;2.50;;;;;;;15.17;58.96;100578.19;31386047;28;20049;-78
2022/05/02 15:49:07;;;;;;;6.17;2.63;;;;;;;14.59;58.80;100561.19;31351151;28;20049;-81
2022/05/02 16:04:15;;;;;;;4.77;3.23;;;;;;;14.36;61.38;100575.88;31359967;28;20053;-80
2022/05/02 16:19:18;;;;;;;6.37;2.17;;;;;;;14.25;60.38;100591.75;31426122;28;20051;-81
2022/05/02 16:34:20;;;;;;;5.23;1.87;;;;;;;14.12;61.15;100588.22;31402861;28;20143;-80
2022/05/02 16:49:22;;;;;;;6.47;2.30;;;;;;;13.90;61.38;100588.78;31433275;28;20131;-80
2022/05/02 17:04:24;;;;;;;3.07;2.03;;;;;;;13.66;61.28;100592.91;31398939;28;20136;-82
2022/05/02 17:19:28;;;;;;;2.10;1.60;;;;;;;13.49;61.84;100591.34;31437971;28;20088;-80
2022/05/02 17:34:53;;;;;;;3.27;2.47;;;;;;;13.40;63.43;100604.81;31398112;28;20053;-81
2022/05/02 17:49:56;;;;;;;2.57;1.80;;;;;;;13.36;62.63;100612.31;31456614;28;20060;-79
2022/05/02 18:05:00;;;;;;;4.13;1.90;;;;;;;13.30;63.32;100634.63;31444380;28;20053;-82
2022/05/02 18:20:11;;;;;;;3.93;2.63;;;;;;;13.15;64.13;100627.16;31407332;28;20095;-81
2022/05/02 19:06:12;;;;;;;6.20;3.40;;;;;;;12.41;70.77;100641.09;31400183;28;20045;-81
2022/05/02 19:21:47;;;;;;;3.20;2.20;;;;;;;12.29;70.90;100637.03;31326528;28;20136;-81
2022/05/02 19:52:39;;;;;;;2.58;1.88;;;;;;;12.09;70.91;100647.09;31335763;28;20059;-78
2022/05/02 20:07:42;;;;;;;;;;;;;;;11.97;74.99;100649.66;31372269;28;20044;-79
2022/05/02 20:22:43;;;;;;;2.50;2.00;;;;;;;11.91;72.08;100652.09;31384533;28;19925;-80
2022/05/02 20:37:45;;;;;;;3.17;2.43;;;;;;;11.78;72.93;100648.44;31402147;28;20069;-79
2022/05/02 20:52:51;;;;;;;5.97;3.20;;;;;;;11.61;73.67;100655.63;31367802;28;20052;-80
2022/05/02 21:07:53;;;;;;;;;;;;;;;11.54;77.67;100639.44;31339756;28;20056;-79
2022/05/02 21:23:25;;;;;;;3.97;2.20;;;;;;;11.51;74.99;100623.94;31362058;28;19932;-79
2022/05/02 21:38:30;;;;;;;6.67;2.77;;;;;;;11.31;75.86;100614.94;31344712;28;20045;-79
2022/05/02 21:53:33;;;;;;;4.93;3.10;;;;;;;11.22;74.25;100601.84;31443977;28;20140;-80
2022/05/02 22:08:35;;;;;;;2.97;2.10;;;;;;;11.06;75.56;100588.88;31394262;28;20131;-80
2022/05/02 22:23:37;;;;;;;5.33;2.53;;;;;;;10.94;76.00;100597.56;31392223;28;20059;-78
2022/05/02 22:38:39;;;;;;;3.87;2.30;;;;;;;10.83;76.77;100589.56;31448494;28;20037;-77
2022/05/02 22:53:41;;;;;;;4.83;2.33;;;;;;;10.73;77.45;100570.69;31398682;28;20144;-79
2022/05/02 23:08:51;;;;;;;3.63;2.63;;;;;;;10.52;79.68;100556.22;31398638;28;20049;-78
2022/05/02 23:24:02;;;;;;;4.50;2.80;;;;;;;10.44;79.40;100556.69;31382307;28;20057;-79
2022/05/02 23:39:06;;;;;;;7.17;2.70;;;;;;;10.32;80.04;100547.16;31368395;28;20516;-78
2022/05/02 23:54:20;;;;;;;3.70;2.70;;;;;;;10.24;81.08;100545.69;31375287;28;20049;-79
